ヌメア の空港の天気 - METARとTAF

ヌメア国際空港 ( NWWW / NOU ) - ニューカレドニア ヌメア
飛行場実況気象(Metar)
観測時間06/15 08:00 NCT (06/14 21:00 UTC)
風向・風速不定 1m/s
視程10km以上
天気現象弱い雨
全天の8割程度の雲 雲底高度 400m
全天の8割程度の雲 雲底高度 550m
全天の8割程度の雲 雲底高度 1070m
気温21℃
湿度94%
気圧1017hPa
METARNWWW 142100Z AUTO VRB01KT 9999 -RA BKN013 BKN018 BKN035 21/20 Q1017 BECMG BKN016 BKN060
過去の天気等 Google飛行場航空写真 Wunderground天気予報

過去48時間のMETAR

飛行場予報(TAF)
発表時間: 6/15 04:00 NCT (6/14 17:00 UTC)
予報対象時間: 15日5時 NCT ~ 16日5時 NCT
風向・風速不定 1m/s
視程10km以上
全天の8割程度の雲 雲底高度 490m
全天の8割程度の雲 雲底高度 1830m
15日5時 NCT ~ 15日8時 NCT に 確率 40% で一時的に
視程4000m
天気現象しゅう雨
全天の8割程度の雲 雲底高度 370m
少しの塔状積雲 雲底高度 490m
15日11時 NCT ~ 15日17時 NCT に 確率 30% で一時的に
視程4000m
天気現象しゅう雨
全天の8割程度の雲 雲底高度 430m
少しの塔状積雲 雲底高度 550m
TAF NWWW 141700Z 1418/1518 VRB02KT 9999 BKN016 BKN060
PROB40 TEMPO 1418/1421 4000 SHRA BKN012 FEW016TCU
PROB30 TEMPO 1500/1506 4000 SHRA BKN014 FEW018TCU